createdAt,value
2018-10-03T00:00:25.099Z,100662.61
2018-10-03T00:02:54.267Z,100664.66
2018-10-03T00:05:23.515Z,100666.23
2018-10-03T00:07:52.695Z,100658.79
2018-10-03T00:10:21.903Z,100642.31
2018-10-03T00:12:51.088Z,100651.76
2018-10-03T00:15:20.374Z,100649.77
2018-10-03T00:17:49.554Z,100645.56
2018-10-03T00:20:18.720Z,100637.25
2018-10-03T00:22:47.883Z,100647.28
2018-10-03T00:25:17.659Z,100642.31
2018-10-03T00:27:46.822Z,100642.23
2018-10-03T00:30:16.727Z,100646.95
2018-10-03T00:32:45.876Z,100651.48
2018-10-03T00:35:16.514Z,100654.33
2018-10-03T00:37:45.764Z,100655.52
2018-10-03T00:40:15.994Z,100664.66
2018-10-03T00:42:45.146Z,100666.56
2018-10-03T00:45:15.455Z,100667.97
2018-10-03T00:47:44.635Z,100676.80
2018-10-03T00:50:15.061Z,100674.52
2018-10-03T00:52:44.224Z,100671.25
2018-10-03T00:55:14.827Z,100674.69
2018-10-03T00:57:44.052Z,100669.01
2018-10-03T01:00:13.560Z,100670.81
2018-10-03T01:02:42.759Z,100663.88
2018-10-03T01:05:12.142Z,100664.08
2018-10-03T01:07:41.319Z,100659.98
2018-10-03T01:10:10.546Z,100660.70
2018-10-03T01:12:39.715Z,100671.44
2018-10-03T01:15:08.935Z,100667.67
2018-10-03T01:17:38.214Z,100666.95
2018-10-03T01:20:07.448Z,100658.27
2018-10-03T01:22:36.624Z,100655.71
2018-10-03T01:25:05.908Z,100652.38
2018-10-03T01:27:35.049Z,100657.52
2018-10-03T01:30:04.339Z,100654.37
2018-10-03T01:32:33.503Z,100655.33
2018-10-03T01:35:02.727Z,100658.84
2018-10-03T01:37:31.904Z,100662.22
2018-10-03T01:40:01.135Z,100658.14
2018-10-03T01:42:30.307Z,100657.50
2018-10-03T01:44:59.490Z,100658.19
2018-10-03T01:47:28.686Z,100663.06
2018-10-03T01:49:57.882Z,100658.77
2018-10-03T01:52:27.081Z,100659.28
2018-10-03T01:54:56.228Z,100666.89
2018-10-03T01:57:25.465Z,100669.96
2018-10-03T01:59:54.619Z,100671.11
2018-10-03T02:02:23.804Z,100669.08
2018-10-03T02:04:52.983Z,100675.33
2018-10-03T02:07:22.152Z,100672.38
2018-10-03T02:09:51.344Z,100678.53
2018-10-03T02:12:20.515Z,100684.22
2018-10-03T02:14:49.712Z,100684.14
2018-10-03T02:17:18.849Z,100677.75
2018-10-03T02:19:48.436Z,100673.28
2018-10-03T02:22:17.665Z,100669.45
2018-10-03T02:24:46.854Z,100667.92
2018-10-03T02:27:16.085Z,100665.38
2018-10-03T02:29:45.284Z,100669.77
2018-10-03T02:32:14.888Z,100658.39
2018-10-03T02:34:44.048Z,100672.08
2018-10-03T02:37:13.937Z,100678.26
2018-10-03T02:39:43.062Z,100677.94
2018-10-03T02:42:12.709Z,100676.73
2018-10-03T02:44:41.828Z,100682.62
2018-10-03T02:47:11.007Z,100675.59
2018-10-03T02:49:40.182Z,100680.38
2018-10-03T02:52:09.376Z,100681.45
2018-10-03T02:54:38.559Z,100685.56
2018-10-03T02:57:07.755Z,100694.43
2018-10-03T02:59:36.892Z,100683.65
2018-10-03T03:02:06.284Z,100689.84
2018-10-03T03:04:35.484Z,100689.31
2018-10-03T03:07:06.043Z,100681.96
2018-10-03T03:09:35.263Z,100683.44
2018-10-03T03:12:04.475Z,100682.05
2018-10-03T03:14:33.643Z,100686.31
2018-10-03T03:32:05.872Z,100702.37
2018-10-03T03:34:35.077Z,100705.99
2018-10-03T03:37:04.294Z,100709.02
2018-10-03T03:39:33.494Z,100708.73
2018-10-03T03:42:02.740Z,100712.20
2018-10-03T03:44:31.915Z,100707.95
2018-10-03T03:47:01.152Z,100711.98
2018-10-03T03:49:30.322Z,100714.30
2018-10-03T03:51:59.546Z,100718.77
2018-10-03T03:54:28.727Z,100726.13
2018-10-03T03:56:58.192Z,100730.10
2018-10-03T03:59:27.373Z,100725.41
2018-10-03T04:01:56.615Z,100736.69
2018-10-03T04:04:26.003Z,100748.50
2018-10-03T04:06:55.260Z,100747.62
2018-10-03T04:09:24.423Z,100722.61
2018-10-03T04:11:53.640Z,100737.88
2018-10-03T04:14:22.820Z,100739.94
2018-10-03T04:16:52.040Z,100738.46
2018-10-03T04:19:21.201Z,100749.57
2018-10-03T04:21:50.415Z,100754.95
2018-10-03T04:24:19.608Z,100751.56
2018-10-03T04:26:51.789Z,100754.20
2018-10-03T04:29:21.037Z,100763.14
2018-10-03T04:31:50.267Z,100760.89
2018-10-03T04:34:19.443Z,100749.52
2018-10-03T04:36:48.711Z,100756.05
2018-10-03T04:39:18.071Z,100744.39
2018-10-03T04:41:47.344Z,100752.41
2018-10-03T04:44:16.544Z,100750.99
2018-10-03T04:46:45.787Z,100749.84
2018-10-03T04:49:15.292Z,100744.73
2018-10-03T04:51:44.521Z,100748.52
2018-10-03T04:54:14.175Z,100759.05
2018-10-03T04:56:43.431Z,100748.42
2018-10-03T04:59:13.089Z,100754.57
2018-10-03T05:01:42.344Z,100759.27
2018-10-03T05:04:11.995Z,100751.55
2018-10-03T05:06:41.188Z,100763.93
2018-10-03T05:09:10.530Z,100773.50
2018-10-03T05:11:39.742Z,100772.36
2018-10-03T05:14:09.402Z,100776.55
2018-10-03T05:16:38.635Z,100776.88
2018-10-03T05:19:08.132Z,100779.19
2018-10-03T05:21:37.440Z,100781.69
2018-10-03T05:24:07.102Z,100783.77
2018-10-03T05:26:36.327Z,100785.20
2018-10-03T05:29:05.570Z,100787.38
2018-10-03T05:31:34.800Z,100795.70
2018-10-03T05:34:04.864Z,100795.84
2018-10-03T05:36:34.119Z,100809.07
2018-10-03T05:39:03.912Z,100818.28
2018-10-03T05:41:33.154Z,100820.83
2018-10-03T05:44:02.376Z,100824.48
2018-10-03T05:46:31.599Z,100831.19
2018-10-03T05:49:00.792Z,100832.80
2018-10-03T05:51:30.001Z,100829.66
2018-10-03T05:53:59.158Z,100830.08
2018-10-03T05:56:28.395Z,100838.41
2018-10-03T05:58:57.621Z,100840.53
2018-10-03T06:01:26.856Z,100850.70
2018-10-03T06:03:56.067Z,100851.34
2018-10-03T06:06:25.325Z,100861.19
2018-10-03T06:08:54.528Z,100871.27
2018-10-03T06:11:23.770Z,100876.52
2018-10-03T06:13:52.936Z,100879.66
2018-10-03T06:16:22.207Z,100874.23
2018-10-03T06:18:51.509Z,100874.87
2018-10-03T06:21:20.756Z,100880.56
2018-10-03T06:23:49.971Z,100886.47
2018-10-03T06:26:19.229Z,100888.78
2018-10-03T06:28:48.451Z,100885.25
2018-10-03T06:31:17.709Z,100894.02
2018-10-03T06:33:47.065Z,100887.73
2018-10-03T06:36:16.303Z,100891.34
2018-10-03T06:38:45.537Z,100890.43
2018-10-03T06:41:14.883Z,100889.89
2018-10-03T06:43:44.992Z,100894.56
2018-10-03T06:46:14.191Z,100900.07
2018-10-03T06:48:43.381Z,100909.73
2018-10-03T06:51:12.658Z,100912.19
2018-10-03T06:53:41.879Z,100905.72
2018-10-03T06:56:11.148Z,100898.52
2018-10-03T06:58:40.384Z,100898.57
2018-10-03T07:01:10.187Z,100902.81
2018-10-03T07:03:39.441Z,100899.11
2018-10-03T07:06:09.492Z,100902.63
2018-10-03T07:08:38.701Z,100904.23
2018-10-03T07:11:08.268Z,100902.88
2018-10-03T07:13:37.472Z,100917.92
2018-10-03T07:16:07.390Z,100918.09
2018-10-03T07:18:36.693Z,100921.53
2018-10-03T07:21:05.927Z,100925.39
2018-10-03T07:23:35.155Z,100919.55
2018-10-03T07:26:04.439Z,100922.77
2018-10-03T07:28:33.642Z,100930.78
2018-10-03T07:31:02.855Z,100934.58
2018-10-03T07:33:32.195Z,100936.58
2018-10-03T07:36:01.458Z,100932.27
2018-10-03T07:38:30.666Z,100936.20
2018-10-03T07:40:59.866Z,100933.73
2018-10-03T07:43:29.073Z,100925.69
2018-10-03T07:45:58.280Z,100929.82
2018-10-03T07:48:27.463Z,100935.75
2018-10-03T07:50:56.646Z,100934.04
2018-10-03T07:53:26.146Z,100936.14
2018-10-03T07:55:55.483Z,100925.68
2018-10-03T07:58:24.695Z,100927.44
2018-10-03T08:00:53.952Z,100927.88
2018-10-03T08:03:23.173Z,100930.15
2018-10-03T08:05:52.433Z,100942.50
2018-10-03T08:08:21.741Z,100949.79
2018-10-03T08:10:50.958Z,100940.18
2018-10-03T08:13:20.164Z,100941.72
2018-10-03T08:15:49.500Z,100950.74
2018-10-03T08:18:18.763Z,100951.66
2018-10-03T08:20:47.983Z,100954.31
2018-10-03T08:23:17.223Z,100958.14
2018-10-03T08:25:46.455Z,100963.92
2018-10-03T08:28:18.577Z,100965.19
2018-10-03T08:30:47.810Z,100971.38
2018-10-03T08:33:17.110Z,100983.84
2018-10-03T08:35:46.347Z,100985.30
2018-10-03T08:38:15.578Z,100996.13
2018-10-03T08:40:44.837Z,100992.70
2018-10-03T08:43:14.104Z,100999.95
2018-10-03T08:45:43.444Z,101000.52
2018-10-03T08:48:12.605Z,101004.51
2018-10-03T08:50:41.875Z,101016.18
2018-10-03T08:53:11.061Z,101027.45
2018-10-03T08:55:40.303Z,101035.25
2018-10-03T08:58:09.910Z,101035.30
2018-10-03T09:00:39.105Z,101046.16
2018-10-03T09:03:08.840Z,101054.28
2018-10-03T09:05:38.124Z,101056.88
2018-10-03T09:08:11.745Z,101057.81
2018-10-03T09:10:42.580Z,101050.84
2018-10-03T09:13:12.363Z,101056.91
2018-10-03T09:15:41.592Z,101048.15
2018-10-03T09:18:11.131Z,101054.78
2018-10-03T09:20:40.399Z,101057.17
2018-10-03T09:23:09.748Z,101065.00
2018-10-03T09:25:39.759Z,101063.83
2018-10-03T09:28:09.325Z,101066.16
2018-10-03T09:30:38.587Z,101063.97
2018-10-03T09:33:08.364Z,101073.86
2018-10-03T09:35:37.635Z,101077.38
2018-10-03T09:38:07.143Z,101074.17
2018-10-03T09:40:36.367Z,101084.27
2018-10-03T09:43:05.667Z,101086.14
2018-10-03T09:45:34.915Z,101090.75
2018-10-03T09:48:04.334Z,101088.78
2018-10-03T09:50:33.599Z,101094.20
2018-10-03T09:53:02.791Z,101097.09
2018-10-03T09:55:32.124Z,101094.50
2018-10-03T09:58:01.374Z,101094.41
2018-10-03T10:00:37.084Z,101099.09
2018-10-03T10:03:08.570Z,101087.90
2018-10-03T10:05:39.144Z,101099.22
2018-10-03T10:08:10.979Z,101102.70
2018-10-03T10:10:41.467Z,101109.19
2018-10-03T10:13:13.029Z,101097.39
2018-10-03T10:15:43.433Z,101096.86
2018-10-03T10:18:12.727Z,101102.44
2018-10-03T10:20:41.988Z,101102.88
2018-10-03T10:23:11.427Z,101101.87
2018-10-03T10:25:40.729Z,101103.77
2018-10-03T10:28:10.806Z,101107.75
2018-10-03T10:30:40.077Z,101103.42
2018-10-03T10:33:09.744Z,101106.86
2018-10-03T10:35:38.986Z,101108.45
2018-10-03T10:38:08.582Z,101118.76
2018-10-03T10:40:37.945Z,101122.39
2018-10-03T10:43:08.007Z,101125.73
2018-10-03T10:45:39.170Z,101130.44
2018-10-03T10:48:11.407Z,101134.06
2018-10-03T10:50:40.828Z,101132.70
2018-10-03T10:53:10.395Z,101127.45
2018-10-03T10:55:39.615Z,101130.57
2018-10-03T10:58:09.362Z,101124.14
2018-10-03T11:00:38.617Z,101123.62
2018-10-03T11:03:08.064Z,101113.30
2018-10-03T11:05:37.329Z,101129.95
2018-10-03T11:08:06.651Z,101130.17
2018-10-03T11:10:36.735Z,101131.39
2018-10-03T11:13:05.957Z,101138.52
2018-10-03T11:15:35.279Z,101126.72
2018-10-03T11:18:04.508Z,101126.31
2018-10-03T11:20:33.759Z,101126.30
2018-10-03T11:23:02.994Z,101127.09
2018-10-03T11:25:32.322Z,101138.20
2018-10-03T11:28:01.507Z,101141.59
2018-10-03T11:30:30.740Z,101136.08
2018-10-03T11:32:59.976Z,101142.67
2018-10-03T11:35:29.254Z,101135.69
2018-10-03T11:37:59.216Z,101136.61
2018-10-03T11:40:28.468Z,101143.45
2018-10-03T11:42:57.728Z,101135.55
2018-10-03T11:45:27.007Z,101142.67
2018-10-03T11:47:56.228Z,101140.53
2018-10-03T11:50:25.508Z,101138.14
2018-10-03T11:52:55.281Z,101136.02
2018-10-03T11:55:24.527Z,101135.72
2018-10-03T11:57:53.764Z,101130.53
2018-10-03T12:00:23.004Z,101130.89
2018-10-03T12:02:52.259Z,101138.73
2018-10-03T12:05:21.467Z,101141.91
2018-10-03T12:07:50.676Z,101127.39
2018-10-03T12:10:19.960Z,101124.80
2018-10-03T12:12:49.339Z,101112.58
2018-10-03T12:15:18.619Z,101107.80
2018-10-03T12:17:47.841Z,101114.77
2018-10-03T12:20:17.228Z,101111.30
2018-10-03T12:22:46.461Z,101106.62
2018-10-03T12:25:15.771Z,101104.36
2018-10-03T12:27:44.960Z,101106.40
2018-10-03T12:30:14.222Z,101105.09
2018-10-03T12:32:43.649Z,101105.74
2018-10-03T12:35:15.660Z,101116.74
2018-10-03T12:37:44.897Z,101111.72
2018-10-03T12:40:14.124Z,101110.48
2018-10-03T12:42:43.363Z,101117.84
2018-10-03T12:45:12.894Z,101104.58
2018-10-03T12:47:42.678Z,101108.23
2018-10-03T12:50:11.892Z,101107.63
2018-10-03T12:52:41.155Z,101123.81
2018-10-03T12:55:11.444Z,101111.60
2018-10-03T12:57:40.680Z,101113.14
2018-10-03T13:00:10.967Z,101122.53
2018-10-03T13:02:40.203Z,101118.02
2018-10-03T13:05:10.708Z,101120.12
2018-10-03T13:07:40.008Z,101128.22
2018-10-03T13:10:10.579Z,101134.55
2018-10-03T13:12:39.829Z,101129.98
2018-10-03T13:15:10.425Z,101135.20
2018-10-03T13:17:39.643Z,101132.27
2018-10-03T13:20:10.635Z,101131.58
2018-10-03T13:22:39.844Z,101129.39
2018-10-03T13:25:09.611Z,101138.22
2018-10-03T13:27:38.835Z,101129.36
2018-10-03T13:30:08.332Z,101127.81
2018-10-03T13:32:37.635Z,101117.69
2018-10-03T13:35:07.809Z,101119.98
2018-10-03T13:37:37.040Z,101113.11
2018-10-03T13:40:06.311Z,101111.64
2018-10-03T13:42:35.504Z,101111.50
2018-10-03T13:45:04.724Z,101116.40
2018-10-03T13:47:34.008Z,101121.50
2018-10-03T13:50:03.223Z,101113.66
2018-10-03T13:52:32.416Z,101123.38
2018-10-03T13:55:01.672Z,101117.11
2018-10-03T13:57:30.869Z,101119.23
2018-10-03T14:00:00.088Z,101122.38
2018-10-03T14:02:29.301Z,101126.20
2018-10-03T14:04:58.522Z,101131.66
2018-10-03T14:07:27.726Z,101126.36
2018-10-03T14:09:56.943Z,101121.13
2018-10-03T14:12:26.175Z,101127.80
2018-10-03T14:14:55.415Z,101123.52
2018-10-03T14:17:24.624Z,101123.95
2018-10-03T14:19:53.838Z,101121.77
2018-10-03T14:22:23.021Z,101129.44
2018-10-03T14:24:52.311Z,101124.36
2018-10-03T14:27:21.527Z,101130.52
2018-10-03T14:29:50.788Z,101128.33
2018-10-03T14:32:20.001Z,101125.30
2018-10-03T14:34:49.343Z,101121.52
2018-10-03T14:37:18.598Z,101125.45
2018-10-03T14:39:47.841Z,101122.69
2018-10-03T14:42:16.999Z,101126.47
2018-10-03T14:44:46.297Z,101139.77
2018-10-03T14:47:15.510Z,101139.14
2018-10-03T14:49:44.791Z,101140.82
2018-10-03T14:52:14.238Z,101142.37
2018-10-03T14:54:43.358Z,101140.51
2018-10-03T14:57:12.541Z,101136.23
2018-10-03T14:59:41.763Z,101143.52
2018-10-03T15:02:10.975Z,101143.61
2018-10-03T15:04:40.226Z,101152.25
2018-10-03T15:07:09.702Z,101149.97
2018-10-03T15:09:38.927Z,101152.68
2018-10-03T15:12:08.623Z,101148.52
2018-10-03T15:14:37.830Z,101152.69
2018-10-03T15:17:07.368Z,101147.78
2018-10-03T15:19:36.624Z,101152.86
2018-10-03T15:22:05.906Z,101154.73
2018-10-03T15:24:35.090Z,101154.41
2018-10-03T15:27:04.300Z,101165.34
2018-10-03T15:29:33.518Z,101163.23
2018-10-03T15:32:02.745Z,101165.00
2018-10-03T15:34:31.949Z,101162.71
2018-10-03T15:37:01.258Z,101168.89
2018-10-03T15:39:31.089Z,101168.36
2018-10-03T15:42:00.383Z,101180.53
2018-10-03T15:44:29.577Z,101175.30
2018-10-03T15:46:58.783Z,101175.77
2018-10-03T15:49:29.398Z,101173.66
2018-10-03T15:51:58.656Z,101180.30
2018-10-03T15:54:27.869Z,101177.08
2018-10-03T15:56:57.095Z,101171.31
2018-10-03T15:59:26.363Z,101182.53
2018-10-03T16:01:55.616Z,101191.01
2018-10-03T16:04:24.823Z,101185.34
2018-10-03T16:06:54.042Z,101187.05
2018-10-03T16:09:23.260Z,101185.87
2018-10-03T16:11:52.490Z,101187.89
2018-10-03T16:14:21.707Z,101184.24
2018-10-03T16:16:50.983Z,101189.78
2018-10-03T16:19:20.207Z,101193.37
2018-10-03T16:21:49.468Z,101195.76
2018-10-03T16:24:18.652Z,101208.44
2018-10-03T16:26:47.930Z,101211.30
2018-10-03T16:29:17.047Z,101210.95
2018-10-03T16:31:46.272Z,101213.81
2018-10-03T16:34:15.443Z,101218.46
2018-10-03T16:36:44.686Z,101221.16
2018-10-03T16:39:13.999Z,101220.05
2018-10-03T16:41:43.136Z,101219.47
2018-10-03T16:44:12.331Z,101219.52
2018-10-03T16:46:41.577Z,101216.25
2018-10-03T16:49:10.764Z,101215.70
2018-10-03T16:51:39.995Z,101216.42
2018-10-03T16:54:09.384Z,101219.73
2018-10-03T16:56:38.740Z,101218.92
2018-10-03T16:59:08.470Z,101223.34
2018-10-03T17:01:37.946Z,101228.57
2018-10-03T17:04:07.416Z,101229.78
2018-10-03T17:06:36.796Z,101231.19
2018-10-03T17:09:07.040Z,101231.89
2018-10-03T17:11:36.881Z,101237.17
2018-10-03T17:14:39.633Z,101244.42
2018-10-03T17:17:10.194Z,101245.38
2018-10-03T17:19:39.801Z,101245.44
2018-10-03T17:22:10.145Z,101248.87
2018-10-03T17:24:42.653Z,101256.95
2018-10-03T17:27:11.875Z,101255.17
2018-10-03T17:29:41.117Z,101261.56
2018-10-03T17:32:10.423Z,101267.38
2018-10-03T17:34:39.674Z,101270.09
2018-10-03T17:37:08.885Z,101272.50
2018-10-03T17:39:38.086Z,101267.63
2018-10-03T17:42:07.357Z,101277.74
2018-10-03T17:44:36.836Z,101283.45
2018-10-03T17:47:06.294Z,101285.97
2018-10-03T17:49:35.696Z,101276.73
2018-10-03T17:52:05.135Z,101278.91
2018-10-03T17:54:34.365Z,101287.69
2018-10-03T17:57:03.635Z,101290.23
2018-10-03T17:59:32.925Z,101292.97
2018-10-03T18:02:05.617Z,101297.98
2018-10-03T18:04:34.954Z,101296.22
2018-10-03T18:07:04.192Z,101306.66
2018-10-03T18:09:33.374Z,101311.93
2018-10-03T18:12:02.595Z,101316.80
2018-10-03T18:14:31.838Z,101317.64
2018-10-03T18:17:01.063Z,101323.05
2018-10-03T18:19:30.330Z,101325.92
2018-10-03T18:21:59.826Z,101323.95
2018-10-03T18:24:29.000Z,101323.81
2018-10-03T18:26:58.220Z,101328.34
2018-10-03T18:29:27.453Z,101328.37
2018-10-03T18:31:56.688Z,101325.69
2018-10-03T18:34:26.097Z,101328.05
2018-10-03T18:36:55.532Z,101330.41
2018-10-03T18:39:24.788Z,101325.06
2018-10-03T18:41:53.996Z,101331.77
2018-10-03T18:44:23.231Z,101331.80
2018-10-03T18:46:52.528Z,101336.16
2018-10-03T18:49:21.700Z,101325.95
2018-10-03T18:51:50.921Z,101331.94
2018-10-03T18:54:20.076Z,101331.94
2018-10-03T18:56:49.327Z,101330.08
2018-10-03T18:59:18.606Z,101325.18
2018-10-03T19:01:47.820Z,101329.27
2018-10-03T19:04:17.773Z,101328.37
2018-10-03T19:06:47.000Z,101327.72
2018-10-03T19:09:16.254Z,101333.43
2018-10-03T19:11:45.495Z,101333.73
2018-10-03T19:14:15.307Z,101334.75
2018-10-03T19:16:44.598Z,101332.02
2018-10-03T19:19:13.798Z,101337.47
2018-10-03T19:21:43.031Z,101342.00
2018-10-03T19:24:12.243Z,101345.08
2018-10-03T19:26:41.688Z,101337.69
2018-10-03T19:29:10.937Z,101345.93
2018-10-03T19:31:40.291Z,101346.28
2018-10-03T19:34:10.700Z,101346.43
2018-10-03T19:36:39.982Z,101348.80
2018-10-03T19:39:09.523Z,101351.63
2018-10-03T19:41:38.995Z,101349.12
2018-10-03T19:44:08.264Z,101350.69
2018-10-03T19:46:37.488Z,101358.20
2018-10-03T19:49:06.704Z,101354.02
2018-10-03T19:51:36.004Z,101346.80
2018-10-03T19:54:05.229Z,101353.16
2018-10-03T19:56:34.468Z,101355.22
2018-10-03T19:59:03.687Z,101352.64
2018-10-03T20:01:32.927Z,101351.67
2018-10-03T20:04:02.186Z,101358.91
2018-10-03T20:06:31.399Z,101351.18
2018-10-03T20:09:00.598Z,101366.12
2018-10-03T20:11:30.536Z,101363.09
2018-10-03T20:14:00.062Z,101353.03
2018-10-03T20:16:29.232Z,101353.89
2018-10-03T20:18:58.480Z,101359.77
2018-10-03T20:21:27.817Z,101360.76
2018-10-03T20:23:56.948Z,101356.56
2018-10-03T20:26:26.495Z,101366.47
2018-10-03T20:28:55.649Z,101364.63
2018-10-03T20:31:25.056Z,101369.67
2018-10-03T20:33:54.616Z,101367.98
2018-10-03T20:36:23.937Z,101379.08
2018-10-03T20:38:53.139Z,101381.27
2018-10-03T20:41:22.431Z,101371.85
2018-10-03T20:43:51.671Z,101373.19
2018-10-03T20:46:21.174Z,101372.53
2018-10-03T20:48:50.404Z,101372.18
2018-10-03T20:51:19.680Z,101375.87
2018-10-03T20:53:48.913Z,101375.70
2018-10-03T20:56:18.249Z,101374.84
2018-10-03T20:58:47.497Z,101370.83
2018-10-03T21:01:17.220Z,101368.12
2018-10-03T21:03:46.518Z,101374.52
2018-10-03T21:06:16.463Z,101368.12
2018-10-03T21:08:45.797Z,101365.78
2018-10-03T21:11:15.228Z,101361.42
2018-10-03T21:13:45.773Z,101361.73
2018-10-03T21:16:15.176Z,101361.05
2018-10-03T21:18:45.005Z,101358.34
2018-10-03T21:21:14.588Z,101357.34
2018-10-03T21:23:45.084Z,101356.50
2018-10-03T21:26:15.251Z,101360.70
2018-10-03T21:28:45.970Z,101360.33
2018-10-03T21:31:15.465Z,101363.52
2018-10-03T21:33:44.708Z,101362.84
2018-10-03T21:36:14.640Z,101355.13
2018-10-03T21:38:43.899Z,101357.14
2018-10-03T21:41:13.798Z,101347.55
2018-10-03T21:43:43.052Z,101354.26
2018-10-03T21:46:12.969Z,101362.10
2018-10-03T21:48:42.150Z,101358.91
2018-10-03T21:51:11.533Z,101357.74
2018-10-03T21:53:40.718Z,101360.26
2018-10-03T21:56:09.951Z,101352.05
2018-10-03T21:58:39.174Z,101354.39
2018-10-03T22:01:08.511Z,101355.77
2018-10-03T22:03:37.745Z,101359.41
2018-10-03T22:06:06.971Z,101349.19
2018-10-03T22:08:36.180Z,101354.19
2018-10-03T22:11:05.467Z,101356.73
2018-10-03T22:13:34.683Z,101351.03
2018-10-03T22:16:03.944Z,101351.13
2018-10-03T22:18:33.226Z,101351.58
2018-10-03T22:21:02.463Z,101350.54
2018-10-03T22:23:31.808Z,101347.44
2018-10-03T22:26:01.026Z,101348.28
2018-10-03T22:28:30.318Z,101343.09
2018-10-03T22:30:59.577Z,101350.12
2018-10-03T22:33:28.876Z,101347.23
2018-10-03T22:35:58.099Z,101352.26
2018-10-03T22:38:27.337Z,101356.16
2018-10-03T22:40:58.129Z,101364.53
2018-10-03T22:43:27.416Z,101362.19
2018-10-03T22:45:56.864Z,101364.48
2018-10-03T22:48:26.114Z,101369.34
2018-10-03T22:50:55.397Z,101373.34
2018-10-03T22:53:24.568Z,101375.14
2018-10-03T22:55:53.834Z,101370.28
2018-10-03T22:58:23.041Z,101372.41
2018-10-03T23:00:52.228Z,101375.58
2018-10-03T23:03:21.443Z,101373.06
2018-10-03T23:05:50.685Z,101377.75
2018-10-03T23:08:19.978Z,101383.55
2018-10-03T23:10:49.183Z,101389.02
2018-10-03T23:13:18.445Z,101389.45
2018-10-03T23:15:47.640Z,101392.77
2018-10-03T23:18:17.038Z,101395.63
2018-10-03T23:20:46.215Z,101398.97
2018-10-03T23:23:15.796Z,101396.72
2018-10-03T23:25:45.083Z,101404.14
2018-10-03T23:28:17.825Z,101399.91
2018-10-03T23:30:47.042Z,101409.66
2018-10-03T23:33:16.591Z,101407.48
2018-10-03T23:35:45.859Z,101407.75
2018-10-03T23:38:15.751Z,101409.58
2018-10-03T23:40:45.020Z,101410.58
2018-10-03T23:43:18.004Z,101410.37
2018-10-03T23:45:48.724Z,101406.73
2018-10-03T23:48:18.017Z,101413.16
2018-10-03T23:50:47.239Z,101417.77
2018-10-03T23:53:16.895Z,101413.09
2018-10-03T23:55:46.139Z,101418.77
2018-10-03T23:58:16.228Z,101420.77
